Hewlett Harbor, New York
Current Conditions -  °F | °C
As of 3:51 PM on Wednesday 26 Nov 2014 (Local Time) from KJFK Reporting Station
Light Rain Light Rain  
Wind Chill: -3°   Ceiling: 1100
Heat Index:   Visibility: 9mi
Dew Point:   Wind: 22mph
Humidity: 89%   Direction: 20°NNE
Pressure: 29.81"   Gusts: 31mph
Location:  40.637°N, 73.6912°W
Report Text: KJFK 262051Z 02019G27KT 9SM -RA BKN011 OVC050 03/02 A2981 RMK AO2 PK WND 01027/2048 SLP094 P0007 60027 T00330017 56064 $
Loading
Personal Weather Stations






























Interactive Weather Map New forecast layout! Learn more

10-Day Weather Forecast

Advertisements
Track Severe Weather on mobile